createdAt,value
2023-05-19T00:01:17.574Z,72.09
2023-05-19T00:04:02.724Z,72.21
2023-05-19T00:06:33.132Z,72.34
2023-05-19T00:09:09.506Z,72.46
2023-05-19T00:11:40.018Z,72.55
2023-05-19T00:14:10.681Z,72.49
2023-05-19T00:16:39.460Z,72.57
2023-05-19T00:19:10.609Z,72.61
2023-05-19T00:21:39.241Z,72.70
2023-05-19T00:24:07.708Z,72.86
2023-05-19T00:26:36.105Z,73.01
2023-05-19T00:29:09.956Z,73.05
2023-05-19T00:31:39.201Z,73.04
2023-05-19T00:34:07.511Z,73.11
2023-05-19T00:36:38.129Z,73.12
2023-05-19T00:39:06.294Z,73.12
2023-05-19T00:41:34.822Z,73.21
2023-05-19T00:44:02.620Z,73.36
2023-05-19T00:46:31.032Z,73.49
2023-05-19T00:48:59.375Z,73.58
2023-05-19T00:51:29.771Z,73.61
2023-05-19T00:53:58.867Z,73.71
2023-05-19T00:56:28.024Z,73.84
2023-05-19T00:58:56.202Z,73.92
2023-05-19T01:01:26.919Z,73.95
2023-05-19T01:03:59.179Z,73.98
2023-05-19T01:06:27.906Z,74.09
2023-05-19T01:08:57.674Z,74.24
2023-05-19T01:11:25.469Z,74.19
2023-05-19T01:13:53.429Z,74.26
2023-05-19T01:16:41.528Z,74.23
2023-05-19T01:19:32.067Z,74.43
2023-05-19T01:22:28.486Z,74.44
2023-05-19T01:25:20.054Z,74.57
2023-05-19T01:27:48.144Z,74.63
2023-05-19T01:30:27.161Z,74.82
2023-05-19T01:33:04.721Z,74.93
2023-05-19T01:35:34.912Z,74.97
2023-05-19T01:38:03.818Z,75.09
2023-05-19T01:40:34.907Z,75.16
2023-05-19T01:43:03.815Z,75.25
2023-05-19T01:45:34.921Z,75.43
2023-05-19T01:48:09.240Z,75.52
2023-05-19T01:50:41.037Z,75.70
2023-05-19T01:53:09.578Z,75.86
2023-05-19T01:55:48.424Z,76.02
2023-05-19T01:58:37.751Z,76.23
2023-05-19T02:01:33.490Z,76.35
2023-05-19T02:04:19.853Z,76.54
2023-05-19T02:07:09.115Z,76.80
2023-05-19T02:10:09.260Z,76.82
2023-05-19T02:12:40.800Z,76.78
2023-05-19T02:15:26.054Z,76.92
2023-05-19T02:17:55.748Z,76.92
2023-05-19T02:20:23.706Z,76.91
2023-05-19T02:22:51.531Z,77.06
2023-05-19T02:25:19.451Z,77.09
2023-05-19T02:27:49.184Z,77.08
2023-05-19T02:30:17.111Z,77.04
2023-05-19T02:32:46.871Z,77.11
2023-05-19T02:35:15.750Z,77.11
2023-05-19T02:37:43.546Z,77.21
2023-05-19T02:40:11.415Z,77.12
2023-05-19T02:42:39.320Z,77.37
2023-05-19T02:45:07.586Z,77.46
2023-05-19T02:47:37.143Z,77.77
2023-05-19T02:50:07.298Z,77.91
2023-05-19T02:52:35.713Z,78.00
2023-05-19T02:55:03.593Z,78.03
2023-05-19T02:57:31.955Z,77.90
2023-05-19T02:59:59.956Z,77.85
2023-05-19T03:02:27.836Z,77.80
2023-05-19T03:04:55.690Z,77.77
2023-05-19T03:07:25.538Z,77.84
2023-05-19T03:09:53.419Z,77.98
2023-05-19T03:12:21.950Z,77.94
2023-05-19T03:14:50.114Z,78.09
2023-05-19T03:17:18.058Z,77.93
2023-05-19T03:19:45.847Z,77.88
2023-05-19T03:22:13.906Z,78.00
2023-05-19T03:24:42.266Z,78.10
2023-05-19T03:27:10.224Z,78.21
2023-05-19T03:29:38.313Z,78.30
2023-05-19T03:32:06.859Z,78.43
2023-05-19T03:34:37.125Z,78.46
2023-05-19T03:37:05.631Z,78.56
2023-05-19T03:39:34.958Z,78.65
2023-05-19T03:42:05.931Z,78.85
2023-05-19T03:44:33.792Z,78.79
2023-05-19T03:47:01.620Z,78.90
2023-05-19T03:49:47.918Z,78.99
2023-05-19T03:52:36.666Z,79.01
2023-05-19T03:55:14.831Z,79.06
2023-05-19T03:57:45.920Z,79.10
2023-05-19T04:00:14.193Z,79.11
2023-05-19T04:02:42.151Z,79.05
2023-05-19T04:05:10.676Z,79.12
2023-05-19T04:07:38.876Z,79.15
2023-05-19T04:10:07.694Z,79.06
2023-05-19T04:12:35.923Z,79.08
2023-05-19T04:15:03.977Z,79.09
2023-05-19T04:17:31.985Z,79.11
2023-05-19T04:20:00.154Z,79.14
2023-05-19T04:22:29.373Z,79.25
2023-05-19T04:24:57.088Z,79.26
2023-05-19T04:27:26.048Z,79.27
2023-05-19T04:29:54.784Z,79.22
2023-05-19T04:32:22.669Z,79.25
2023-05-19T04:34:52.546Z,79.22
2023-05-19T04:37:26.237Z,79.26
2023-05-19T04:39:54.365Z,79.17
2023-05-19T04:42:26.379Z,79.16
2023-05-19T04:44:56.576Z,79.06
2023-05-19T04:47:30.136Z,78.96
2023-05-19T04:50:00.849Z,79.01
2023-05-19T04:52:28.997Z,78.91
2023-05-19T04:54:56.851Z,78.85
2023-05-19T04:57:25.759Z,78.83
2023-05-19T04:59:59.890Z,78.67
2023-05-19T05:02:34.028Z,78.18
2023-05-19T05:05:02.691Z,77.55
2023-05-19T05:07:32.496Z,77.01
2023-05-19T05:10:00.816Z,76.58
2023-05-19T05:12:29.626Z,75.54
2023-05-19T05:14:57.880Z,74.76
2023-05-19T05:17:28.346Z,74.39
2023-05-19T05:19:56.389Z,73.54
2023-05-19T05:22:24.590Z,73.56
2023-05-19T05:24:54.247Z,72.93
2023-05-19T05:27:22.425Z,72.57
2023-05-19T05:29:51.680Z,72.61
2023-05-19T05:32:20.809Z,72.11
2023-05-19T05:34:49.876Z,71.94
2023-05-19T05:37:18.124Z,71.59
2023-05-19T05:39:45.869Z,71.65
2023-05-19T05:42:14.865Z,71.46
2023-05-19T05:44:42.981Z,71.45
2023-05-19T05:47:12.320Z,71.13
2023-05-19T05:49:40.514Z,71.31
2023-05-19T05:52:11.341Z,70.83
2023-05-19T05:54:44.291Z,70.42
2023-05-19T05:57:14.497Z,69.92
2023-05-19T05:59:45.530Z,70.33
2023-05-19T06:02:14.034Z,69.83
2023-05-19T06:04:41.932Z,69.47
2023-05-19T06:07:09.951Z,68.93
2023-05-19T06:09:39.564Z,68.64
2023-05-19T06:12:08.981Z,68.30
2023-05-19T06:14:45.044Z,68.40
2023-05-19T06:17:18.561Z,68.47
2023-05-19T06:19:46.325Z,67.32
2023-05-19T06:22:14.540Z,67.57
2023-05-19T06:24:42.575Z,67.39
2023-05-19T06:27:11.217Z,66.95
2023-05-19T06:29:39.269Z,66.77
2023-05-19T06:32:09.168Z,67.00
2023-05-19T06:34:38.472Z,65.82
2023-05-19T06:37:06.283Z,64.86
2023-05-19T06:39:36.330Z,64.89
2023-05-19T06:42:04.822Z,63.86
2023-05-19T06:44:58.521Z,63.74
2023-05-19T06:47:27.456Z,64.37
2023-05-19T06:49:55.674Z,63.49
2023-05-19T06:52:27.468Z,63.29
2023-05-19T06:54:56.005Z,63.15
2023-05-19T06:57:23.783Z,63.19
2023-05-19T06:59:52.240Z,61.28
2023-05-19T07:02:20.363Z,61.76
2023-05-19T07:04:49.096Z,61.89
2023-05-19T07:07:20.991Z,60.82
2023-05-19T07:09:48.896Z,61.14
2023-05-19T07:12:16.675Z,60.37
2023-05-19T07:14:44.762Z,59.03
2023-05-19T07:17:13.407Z,59.68
2023-05-19T07:19:45.558Z,59.81
2023-05-19T07:22:13.345Z,61.18
2023-05-19T07:24:41.113Z,56.75
2023-05-19T07:27:09.612Z,56.71
2023-05-19T07:29:37.658Z,56.55
2023-05-19T07:32:06.086Z,53.42
2023-05-19T07:34:34.132Z,54.91
2023-05-19T07:37:02.185Z,56.27
2023-05-19T07:39:32.393Z,53.65
2023-05-19T07:42:00.346Z,53.27
2023-05-19T07:44:28.261Z,52.95
2023-05-19T07:46:56.400Z,54.90
2023-05-19T07:49:24.326Z,52.52
2023-05-19T07:51:52.287Z,51.99
2023-05-19T07:54:20.903Z,51.98
2023-05-19T07:56:48.602Z,53.53
2023-05-19T07:59:17.682Z,52.39
2023-05-19T08:01:45.798Z,52.93
2023-05-19T08:04:14.223Z,53.11
2023-05-19T08:06:44.368Z,54.03
2023-05-19T08:09:12.616Z,53.12
2023-05-19T08:11:40.409Z,54.80
2023-05-19T08:14:08.338Z,53.74
2023-05-19T08:16:36.211Z,53.89
2023-05-19T08:19:05.635Z,54.87
2023-05-19T08:21:34.752Z,52.40
2023-05-19T08:24:02.765Z,53.53
2023-05-19T08:26:30.837Z,51.97
2023-05-19T08:28:58.582Z,50.05
2023-05-19T08:31:26.430Z,49.99
2023-05-19T08:33:54.307Z,51.07
2023-05-19T08:36:23.260Z,50.64
2023-05-19T08:38:50.962Z,49.87
2023-05-19T08:41:19.224Z,49.59
2023-05-19T08:43:47.004Z,48.91
2023-05-19T08:46:16.942Z,48.29
2023-05-19T08:48:48.138Z,48.69
2023-05-19T08:51:32.070Z,47.09
2023-05-19T08:54:14.691Z,48.32
2023-05-19T08:56:45.178Z,47.65
2023-05-19T08:59:17.566Z,48.04
2023-05-19T09:01:47.131Z,48.73
2023-05-19T09:04:16.016Z,47.18
2023-05-19T09:06:45.492Z,46.45
2023-05-19T09:09:13.635Z,47.03
2023-05-19T09:11:41.865Z,46.95
2023-05-19T09:14:09.732Z,47.42
2023-05-19T09:16:37.753Z,46.66
2023-05-19T09:19:07.317Z,45.52
2023-05-19T09:21:35.927Z,45.32
2023-05-19T09:24:08.523Z,47.13
2023-05-19T09:26:43.276Z,45.65
2023-05-19T09:29:17.600Z,45.41
2023-05-19T09:31:52.213Z,45.83
2023-05-19T09:34:25.130Z,45.28
2023-05-19T09:36:54.227Z,45.05
2023-05-19T09:39:25.272Z,44.72
2023-05-19T09:41:54.555Z,44.54
2023-05-19T09:44:32.962Z,44.93
2023-05-19T09:47:00.778Z,44.71
2023-05-19T09:49:30.321Z,44.99
2023-05-19T09:51:59.608Z,44.51
2023-05-19T09:54:28.606Z,42.24
2023-05-19T09:57:05.243Z,42.55
2023-05-19T09:59:34.919Z,43.82
2023-05-19T10:02:06.272Z,43.16
2023-05-19T10:04:36.693Z,41.28
2023-05-19T10:07:07.382Z,41.99
2023-05-19T10:09:36.735Z,40.96
2023-05-19T10:12:05.898Z,41.72
2023-05-19T10:14:34.213Z,41.24
2023-05-19T10:17:01.997Z,40.08
2023-05-19T10:19:30.311Z,39.54
2023-05-19T10:21:58.170Z,38.69
2023-05-19T10:24:26.934Z,39.08
2023-05-19T10:27:02.436Z,38.59
2023-05-19T10:29:34.935Z,38.90
2023-05-19T10:32:15.520Z,37.59
2023-05-19T10:35:16.187Z,41.30
2023-05-19T10:38:03.546Z,39.61
2023-05-19T10:40:53.469Z,40.04
2023-05-19T10:43:46.255Z,38.25
2023-05-19T10:46:14.427Z,38.09
2023-05-19T10:48:46.833Z,37.83
2023-05-19T10:51:16.576Z,36.44
2023-05-19T10:53:49.989Z,35.99
2023-05-19T10:56:35.000Z,37.33
2023-05-19T10:59:04.524Z,37.00
2023-05-19T11:01:34.631Z,36.39
2023-05-19T11:04:10.676Z,39.84
2023-05-19T11:06:40.508Z,37.94
2023-05-19T11:09:20.913Z,36.53
2023-05-19T11:11:55.643Z,35.11
2023-05-19T11:14:31.800Z,35.08
2023-05-19T11:17:01.088Z,37.42
2023-05-19T11:19:53.915Z,36.03
2023-05-19T11:22:26.598Z,36.98
2023-05-19T11:24:58.242Z,34.47
2023-05-19T11:27:34.551Z,35.22
2023-05-19T11:30:14.701Z,34.10
2023-05-19T11:32:44.381Z,33.18
2023-05-19T11:35:12.565Z,34.53
2023-05-19T11:37:42.827Z,32.54
2023-05-19T11:40:11.021Z,35.01
2023-05-19T11:42:38.929Z,35.11
2023-05-19T11:45:07.784Z,36.10
2023-05-19T11:47:51.663Z,31.92
2023-05-19T11:50:24.471Z,33.07
2023-05-19T11:52:53.083Z,35.24
2023-05-19T11:55:22.734Z,33.01
2023-05-19T11:58:05.583Z,31.53
2023-05-19T12:00:41.669Z,32.66
2023-05-19T12:03:10.665Z,31.98
2023-05-19T12:05:48.231Z,33.05
2023-05-19T12:08:21.785Z,32.07
2023-05-19T12:10:53.274Z,32.58
2023-05-19T12:13:22.792Z,32.41
2023-05-19T12:15:53.242Z,30.92
2023-05-19T12:18:21.548Z,31.64
2023-05-19T12:20:49.736Z,33.15
2023-05-19T12:23:17.860Z,30.82
2023-05-19T12:25:46.117Z,31.77
2023-05-19T12:28:13.993Z,31.44
2023-05-19T12:30:47.451Z,31.99
2023-05-19T12:33:16.652Z,31.97
2023-05-19T12:35:44.727Z,30.06
2023-05-19T12:38:14.256Z,30.65
2023-05-19T12:40:43.037Z,32.02
2023-05-19T12:43:21.045Z,29.58
2023-05-19T12:45:49.382Z,28.03
2023-05-19T12:48:17.274Z,29.04
2023-05-19T12:50:45.854Z,30.35
2023-05-19T12:53:16.352Z,33.08
2023-05-19T12:55:46.024Z,30.36
2023-05-19T12:58:16.685Z,31.78
2023-05-19T13:00:47.526Z,32.26
2023-05-19T13:03:18.022Z,31.08
2023-05-19T13:05:48.743Z,32.03
2023-05-19T13:08:24.283Z,32.03
2023-05-19T13:10:52.182Z,31.41
2023-05-19T13:13:19.967Z,30.72
2023-05-19T13:15:49.179Z,31.08
2023-05-19T13:18:17.969Z,33.15
2023-05-19T13:20:47.612Z,33.78
2023-05-19T13:23:16.054Z,31.10
2023-05-19T13:25:47.247Z,29.98
2023-05-19T13:28:15.302Z,30.06
2023-05-19T13:30:45.223Z,30.33
2023-05-19T13:33:13.228Z,29.58
2023-05-19T13:35:41.195Z,29.58
2023-05-19T13:38:10.851Z,30.42
2023-05-19T13:40:39.915Z,30.19
2023-05-19T13:43:08.853Z,28.59
2023-05-19T13:45:37.366Z,31.16
2023-05-19T13:48:07.367Z,31.49
2023-05-19T13:50:35.937Z,30.93
2023-05-19T13:53:04.018Z,31.21
2023-05-19T13:55:32.206Z,30.86
2023-05-19T13:58:00.178Z,29.24
2023-05-19T14:00:27.896Z,30.12
2023-05-19T14:02:56.461Z,29.75
2023-05-19T14:05:24.275Z,29.59
2023-05-19T14:07:52.372Z,31.75
2023-05-19T14:10:20.611Z,32.52
2023-05-19T14:13:12.376Z,32.40
2023-05-19T14:15:38.293Z,33.80
2023-05-19T14:18:07.258Z,34.87
2023-05-19T14:20:36.236Z,35.84
2023-05-19T14:23:04.344Z,32.67
2023-05-19T14:25:32.630Z,32.40
2023-05-19T14:28:00.701Z,32.02
2023-05-19T14:30:29.129Z,31.44
2023-05-19T14:32:57.219Z,30.90
2023-05-19T14:35:25.454Z,29.90
2023-05-19T14:37:53.755Z,29.84
2023-05-19T14:40:21.552Z,31.23
2023-05-19T14:42:49.228Z,30.20
2023-05-19T14:45:16.939Z,31.16
2023-05-19T14:47:44.839Z,31.37
2023-05-19T14:50:12.964Z,30.77
2023-05-19T14:52:40.816Z,30.56
2023-05-19T14:55:09.635Z,32.40
2023-05-19T14:57:37.887Z,31.80
2023-05-19T15:00:07.068Z,31.58
2023-05-19T15:02:35.151Z,30.69
2023-05-19T15:05:03.916Z,30.80
2023-05-19T15:07:31.682Z,30.88
2023-05-19T15:09:59.538Z,33.39
2023-05-19T15:12:27.300Z,34.12
2023-05-19T15:14:55.248Z,32.71
2023-05-19T15:17:24.270Z,31.89
2023-05-19T15:19:52.052Z,32.50
2023-05-19T15:22:19.946Z,31.53
2023-05-19T15:24:47.726Z,32.59
2023-05-19T15:27:15.511Z,32.98
2023-05-19T15:29:43.230Z,33.77
2023-05-19T15:32:11.319Z,35.89
2023-05-19T15:34:39.567Z,35.77
2023-05-19T15:37:10.450Z,36.17
2023-05-19T15:39:38.438Z,36.71
2023-05-19T15:42:09.408Z,37.05
2023-05-19T15:44:37.600Z,36.75
2023-05-19T15:47:07.765Z,38.33
2023-05-19T15:49:35.758Z,37.06
2023-05-19T15:52:04.550Z,37.55
2023-05-19T15:54:32.584Z,37.60
2023-05-19T15:57:00.279Z,38.48
2023-05-19T15:59:27.985Z,38.08
2023-05-19T16:01:56.530Z,38.69
2023-05-19T16:04:24.595Z,38.39
2023-05-19T16:06:52.511Z,38.63
2023-05-19T16:09:20.303Z,38.07
2023-05-19T16:11:48.114Z,38.25
2023-05-19T16:14:16.118Z,39.42
2023-05-19T16:16:44.746Z,37.88
2023-05-19T16:19:12.766Z,37.02
2023-05-19T16:21:40.713Z,38.39
2023-05-19T16:24:08.630Z,38.54
2023-05-19T16:26:37.152Z,39.52
2023-05-19T16:29:04.918Z,39.12
2023-05-19T16:31:32.699Z,39.50
2023-05-19T16:34:00.581Z,39.21
2023-05-19T16:36:28.429Z,38.71
2023-05-19T16:38:56.276Z,38.93
2023-05-19T16:41:24.104Z,40.41
2023-05-19T16:43:51.815Z,40.22
2023-05-19T16:46:19.590Z,39.72
2023-05-19T16:48:47.643Z,39.78
2023-05-19T16:51:17.843Z,39.93
2023-05-19T16:53:45.546Z,42.02
2023-05-19T16:56:13.702Z,40.13
2023-05-19T16:58:41.585Z,40.13
2023-05-19T17:01:10.573Z,41.64
2023-05-19T17:03:38.372Z,40.99
2023-05-19T17:06:07.177Z,41.48
2023-05-19T17:08:35.019Z,41.47
2023-05-19T17:11:03.610Z,40.25
2023-05-19T17:13:36.692Z,42.06
2023-05-19T17:16:04.609Z,41.18
2023-05-19T17:18:32.396Z,41.52
2023-05-19T17:21:03.798Z,41.69
2023-05-19T17:23:32.385Z,42.75
2023-05-19T17:26:00.148Z,42.28
2023-05-19T17:28:27.995Z,43.27
2023-05-19T17:30:56.268Z,41.85
2023-05-19T17:33:24.309Z,41.61
2023-05-19T17:35:52.367Z,41.63
2023-05-19T17:38:20.844Z,43.43
2023-05-19T17:40:48.775Z,42.37
2023-05-19T17:43:17.137Z,41.25
2023-05-19T17:45:44.919Z,41.11
2023-05-19T17:48:12.763Z,41.77
2023-05-19T17:50:40.631Z,40.71
2023-05-19T17:53:08.757Z,40.57
2023-05-19T17:55:37.341Z,41.01
2023-05-19T17:58:07.169Z,40.89
2023-05-19T18:00:35.849Z,42.02
2023-05-19T18:03:06.497Z,42.03
2023-05-19T18:05:34.981Z,42.44
2023-05-19T18:08:07.161Z,42.22
2023-05-19T18:10:38.333Z,41.68
2023-05-19T18:13:08.774Z,42.77
2023-05-19T18:15:40.039Z,42.41
2023-05-19T18:18:11.143Z,42.74
2023-05-19T18:20:41.263Z,43.87
2023-05-19T18:23:08.950Z,43.82
2023-05-19T18:25:39.573Z,43.49
2023-05-19T18:28:08.106Z,42.57
2023-05-19T18:30:39.002Z,42.79
2023-05-19T18:33:07.307Z,43.01
2023-05-19T18:35:37.213Z,43.58
2023-05-19T18:38:04.969Z,43.46
2023-05-19T18:40:33.177Z,43.11
2023-05-19T18:43:01.317Z,45.75
2023-05-19T18:45:29.228Z,44.61
2023-05-19T18:47:57.505Z,44.11
2023-05-19T18:50:25.787Z,44.90
2023-05-19T18:52:53.739Z,46.28
2023-05-19T18:55:21.576Z,46.34
2023-05-19T18:57:49.397Z,46.45
2023-05-19T19:00:18.343Z,46.30
2023-05-19T19:02:46.550Z,46.86
2023-05-19T19:05:14.591Z,46.04
2023-05-19T19:07:44.410Z,47.38
2023-05-19T19:10:12.664Z,47.54
2023-05-19T19:12:40.477Z,47.09
2023-05-19T19:15:08.992Z,46.35
2023-05-19T19:17:37.929Z,47.50
2023-05-19T19:20:09.963Z,46.88
2023-05-19T19:22:38.379Z,47.85
2023-05-19T19:25:07.363Z,48.30
2023-05-19T19:27:35.904Z,47.46
2023-05-19T19:30:05.176Z,48.08
2023-05-19T19:32:33.498Z,48.28
2023-05-19T19:35:01.897Z,48.05
2023-05-19T19:37:29.645Z,47.86
2023-05-19T19:39:57.542Z,48.73
2023-05-19T19:42:25.724Z,49.17
2023-05-19T19:44:57.298Z,49.75
2023-05-19T19:47:26.549Z,49.79
2023-05-19T19:49:54.300Z,49.12
2023-05-19T19:52:26.100Z,49.71
2023-05-19T19:54:54.656Z,49.21
2023-05-19T19:57:22.876Z,50.12
2023-05-19T19:59:56.692Z,50.80
2023-05-19T20:02:24.668Z,50.38
2023-05-19T20:04:52.445Z,50.21
2023-05-19T20:07:21.036Z,50.23
2023-05-19T20:09:50.871Z,49.71
2023-05-19T20:12:18.656Z,49.95
2023-05-19T20:14:46.636Z,50.48
2023-05-19T20:17:14.375Z,51.05
2023-05-19T20:19:42.264Z,51.25
2023-05-19T20:22:10.258Z,50.49
2023-05-19T20:24:38.429Z,51.15
2023-05-19T20:27:07.398Z,51.53
2023-05-19T20:29:35.131Z,51.79
2023-05-19T20:32:03.341Z,51.52
2023-05-19T20:34:31.158Z,52.24
2023-05-19T20:36:59.050Z,52.44
2023-05-19T20:39:26.867Z,52.45
2023-05-19T20:41:54.549Z,53.38
2023-05-19T20:44:22.274Z,52.46
2023-05-19T20:46:51.150Z,54.28
2023-05-19T20:49:20.576Z,52.78
2023-05-19T20:51:48.425Z,53.56
2023-05-19T20:54:17.140Z,53.10
2023-05-19T20:56:45.367Z,53.46
2023-05-19T20:59:14.012Z,54.06
2023-05-19T21:01:41.947Z,53.66
2023-05-19T21:04:09.815Z,54.36
2023-05-19T21:06:38.438Z,53.88
2023-05-19T21:09:07.043Z,53.93
2023-05-19T21:11:35.948Z,53.73
2023-05-19T21:14:07.013Z,54.72
2023-05-19T21:16:39.293Z,53.97
2023-05-19T21:19:07.777Z,54.04
2023-05-19T21:21:38.989Z,54.06
2023-05-19T21:24:07.218Z,54.48
2023-05-19T21:26:35.053Z,54.82
2023-05-19T21:29:02.848Z,55.18
2023-05-19T21:31:31.259Z,55.02
2023-05-19T21:33:59.078Z,55.22
2023-05-19T21:36:27.236Z,55.56
2023-05-19T21:38:55.068Z,55.95
2023-05-19T21:41:22.888Z,56.26
2023-05-19T21:43:50.625Z,56.05
2023-05-19T21:46:18.490Z,56.46
2023-05-19T21:48:46.487Z,56.60
2023-05-19T21:51:14.335Z,56.43
2023-05-19T21:53:42.718Z,56.74
2023-05-19T21:56:10.616Z,56.68
2023-05-19T21:58:38.808Z,56.16
2023-05-19T22:01:07.009Z,55.87
2023-05-19T22:03:34.856Z,56.48
2023-05-19T22:06:02.693Z,56.42
2023-05-19T22:08:30.715Z,56.56
2023-05-19T22:10:58.487Z,56.98
2023-05-19T22:13:26.464Z,56.32
2023-05-19T22:15:54.561Z,56.29
2023-05-19T22:18:22.486Z,56.57
2023-05-19T22:20:50.199Z,56.70
2023-05-19T22:23:18.064Z,56.87
2023-05-19T22:25:45.874Z,56.83
2023-05-19T22:28:13.649Z,56.48
2023-05-19T22:30:42.529Z,56.78
2023-05-19T22:33:11.497Z,56.85
2023-05-19T22:35:39.293Z,57.80
2023-05-19T22:38:08.843Z,57.66
2023-05-19T22:40:38.818Z,57.90
2023-05-19T22:43:09.367Z,57.91
2023-05-19T22:45:39.987Z,58.31
2023-05-19T22:48:11.621Z,58.51
2023-05-19T22:50:39.514Z,58.81
2023-05-19T22:53:07.516Z,58.58
2023-05-19T22:55:36.150Z,58.98
2023-05-19T22:58:04.062Z,59.05
2023-05-19T23:00:32.080Z,59.26
2023-05-19T23:03:00.276Z,59.40
2023-05-19T23:05:28.071Z,59.62
2023-05-19T23:07:55.832Z,59.75
2023-05-19T23:10:23.510Z,60.08
2023-05-19T23:12:51.623Z,60.51
2023-05-19T23:15:19.309Z,60.65
2023-05-19T23:17:47.048Z,60.58
2023-05-19T23:20:14.901Z,60.78
2023-05-19T23:22:42.803Z,61.45
2023-05-19T23:25:11.331Z,61.28
2023-05-19T23:27:39.031Z,61.39
2023-05-19T23:30:07.479Z,61.56
2023-05-19T23:32:35.489Z,62.18
2023-05-19T23:35:11.536Z,62.31
2023-05-19T23:37:39.395Z,62.35
2023-05-19T23:40:08.443Z,62.19
2023-05-19T23:42:39.526Z,62.28
2023-05-19T23:45:07.914Z,62.70
2023-05-19T23:47:38.248Z,62.77
2023-05-19T23:50:06.506Z,62.73
2023-05-19T23:52:34.330Z,63.08
2023-05-19T23:55:03.632Z,63.49
2023-05-19T23:57:31.527Z,63.31
